Time;durP1;ratioP1;P1;durP2;ratioP2;P2;SDS_P1;SDS_P2;PMS_P1;PMS_P2;Temp;Humidity;BMP_temperature;BMP_pressure;BME280_temperature;BME280_humidity;BME280_pressure;Samples;Min_cycle;Max_cycle;Signal;HPM_P1;HPM_P2
2023/01/16 00:00:04;;;;;;;40.63;22.83;;;;;;;;;;4880792;29;20471;-72
2023/01/16 00:02:32;;;;;;;39.17;20.98;;;;;;;;;;4881107;29;20465;-72
2023/01/16 00:04:58;;;;;;;44.33;23.08;;;;;;;;;;4894817;29;20041;-72
2023/01/16 00:07:24;;;;;;;41.75;21.75;;;;;;;;;;4898503;29;20403;-72
2023/01/16 00:09:49;;;;;;;45.70;23.00;;;;;;;;;;4890999;29;20036;-72
2023/01/16 00:12:15;;;;;;;44.85;23.58;;;;;;;;;;4899552;29;20439;-72
2023/01/16 00:14:41;;;;;;;44.08;23.20;;;;;;;;;;4899028;29;20703;-71
2023/01/16 00:17:06;;;;;;;50.50;25.23;;;;;;;;;;4899535;29;20041;-72
2023/01/16 00:19:32;;;;;;;39.67;21.40;;;;;;;;;;4899009;29;20084;-72
2023/01/16 00:21:58;;;;;;;42.72;22.13;;;;;;;;;;4899521;29;20076;-72
2023/01/16 00:24:23;;;;;;;41.95;21.67;;;;;;;;;;4899647;29;20028;-72
2023/01/16 00:26:51;;;;;;;41.30;20.20;;;;;;;;;;4898501;29;20408;-72
2023/01/16 00:29:16;;;;;;;41.03;21.15;;;;;;;;;;4899501;29;20031;-72
2023/01/16 00:31:42;;;;;;;35.03;21.92;;;;;;;;;;4899475;29;20088;-72
2023/01/16 00:34:08;;;;;;;53.22;24.33;;;;;;;;;;4891177;29;20436;-72
2023/01/16 00:36:34;;;;;;;43.38;21.40;;;;;;;;;;4880780;29;20519;-73
2023/01/16 00:38:59;;;;;;;39.42;22.00;;;;;;;;;;4885474;29;20031;-72
2023/01/16 00:41:25;;;;;;;37.22;21.27;;;;;;;;;;4898071;29;20064;-72
2023/01/16 00:43:51;;;;;;;38.05;20.73;;;;;;;;;;4899277;29;20021;-72
2023/01/16 00:46:17;;;;;;;40.47;20.00;;;;;;;;;;4899454;29;20475;-73
2023/01/16 00:48:43;;;;;;;41.53;21.45;;;;;;;;;;4893805;29;20033;-72
2023/01/16 00:51:09;;;;;;;38.33;20.75;;;;;;;;;;4880347;29;20063;-72
2023/01/16 00:53:35;;;;;;;39.60;20.90;;;;;;;;;;4880587;29;20032;-72
2023/01/16 00:56:00;;;;;;;41.58;23.13;;;;;;;;;;4880523;29;20070;-73
2023/01/16 00:58:26;;;;;;;36.50;20.60;;;;;;;;;;4880545;29;20029;-73
2023/01/16 01:00:52;;;;;;;36.22;20.10;;;;;;;;;;4880006;29;20043;-73
2023/01/16 01:03:17;;;;;;;36.70;20.05;;;;;;;;;;4880374;29;20421;-72
2023/01/16 01:05:43;;;;;;;38.05;19.20;;;;;;;;;;4880596;29;20093;-72
2023/01/16 01:08:09;;;;;;;35.03;18.55;;;;;;;;;;4880304;29;20033;-72
2023/01/16 01:10:38;;;;;;;37.95;19.23;;;;;;;;;;4879656;29;20041;-71
2023/01/16 01:13:04;;;;;;;34.53;17.73;;;;;;;;;;4882859;29;20032;-72
2023/01/16 01:15:31;;;;;;;35.22;16.52;;;;;;;;;;4898915;29;20041;-72
2023/01/16 01:17:57;;;;;;;30.50;16.75;;;;;;;;;;4898222;29;20080;-71
2023/01/16 01:20:23;;;;;;;28.83;16.30;;;;;;;;;;4898862;29;20051;-71
2023/01/16 01:22:49;;;;;;;27.33;15.40;;;;;;;;;;4898637;29;20099;-72
2023/01/16 01:25:15;;;;;;;29.40;16.55;;;;;;;;;;4897515;29;20115;-71
2023/01/16 01:27:40;;;;;;;27.23;15.07;;;;;;;;;;4881560;29;20024;-71
2023/01/16 01:30:07;;;;;;;26.02;14.70;;;;;;;;;;4897400;29;20506;-71
2023/01/16 01:32:33;;;;;;;24.92;13.88;;;;;;;;;;4898481;29;20029;-71
2023/01/16 01:34:59;;;;;;;22.55;13.43;;;;;;;;;;4898596;29;20107;-72
2023/01/16 01:37:24;;;;;;;25.33;13.38;;;;;;;;;;4898562;29;20039;-71
2023/01/16 01:39:50;;;;;;;24.13;14.27;;;;;;;;;;4898472;29;20516;-72
2023/01/16 01:45:13;;;;;;;28.65;13.90;;;;;;;;;;4898520;29;20032;-71
2023/01/16 01:47:43;;;;;;;25.90;13.45;;;;;;;;;;4881716;29;20456;-72
2023/01/16 01:50:29;;;;;;;30.63;15.25;;;;;;;;;;4880840;29;20053;-72
2023/01/16 01:52:59;;;;;;;26.42;14.23;;;;;;;;;;4881164;29;20041;-71
2023/01/16 01:55:25;;;;;;;28.10;14.57;;;;;;;;;;4898201;29;20025;-72
2023/01/16 01:57:58;;;;;;;26.08;14.90;;;;;;;;;;4896641;29;20103;-72
2023/01/16 02:00:25;;;;;;;25.67;15.00;;;;;;;;;;4897559;29;20037;-72
2023/01/16 02:02:59;;;;;;;33.00;16.58;;;;;;;;;;4882670;29;20028;-72
2023/01/16 02:05:28;;;;;;;;;;;;;;;;;;4898290;29;20123;-71
2023/01/16 02:07:54;;;;;;;32.17;15.35;;;;;;;;;;4890452;29;19911;-72
2023/01/16 02:10:49;;;;;;;28.42;14.82;;;;;;;;;;4898009;29;20051;-71
2023/01/16 02:13:15;;;;;;;28.52;14.73;;;;;;;;;;4876435;29;20104;-71
2023/01/16 02:19:14;;;;;;;24.20;14.20;;;;;;;;;;4881852;29;20032;-71
2023/01/16 02:21:20;;;;;;;31.50;16.67;;;;;;;;;;4892108;29;20037;-72
2023/01/16 02:24:06;;;;;;;31.95;16.80;;;;;;;;;;4897129;29;20554;-73
2023/01/16 02:26:53;;;;;;;32.47;17.38;;;;;;;;;;4890184;29;20040;-71
2023/01/16 02:29:42;;;;;;;34.17;18.20;;;;;;;;;;4890988;29;20029;-72
2023/01/16 02:32:33;;;;;;;38.08;19.02;;;;;;;;;;4892102;29;20036;-73
2023/01/16 02:35:08;;;;;;;31.65;16.48;;;;;;;;;;4889692;29;20104;-72
2023/01/16 02:37:50;;;;;;;29.25;16.65;;;;;;;;;;4880066;29;20044;-72
2023/01/16 02:40:16;;;;;;;35.63;19.75;;;;;;;;;;4893075;29;20041;-72
2023/01/16 02:43:13;;;;;;;44.25;22.83;;;;;;;;;;4895264;29;20049;-72
2023/01/16 02:46:00;;;;;;;47.60;24.95;;;;;;;;;;4897809;29;20044;-73
2023/01/16 02:48:50;;;;;;;47.75;24.58;;;;;;;;;;4882077;29;20092;-72
2023/01/16 02:51:38;;;;;;;55.05;26.25;;;;;;;;;;4892972;29;20043;-72
2023/01/16 02:54:24;;;;;;;63.05;28.48;;;;;;;;;;4891598;29;20036;-72
2023/01/16 02:57:02;;;;;;;56.40;27.45;;;;;;;;;;4892522;29;20099;-72
2023/01/16 02:59:28;;;;;;;53.63;27.88;;;;;;;;;;4897412;29;20025;-71
2023/01/16 03:01:56;;;;;;;52.25;27.27;;;;;;;;;;4873200;29;20047;-71
2023/01/16 03:04:43;;;;;;;54.35;27.50;;;;;;;;;;4873391;29;20041;-71
2023/01/16 03:07:12;;;;;;;48.55;25.58;;;;;;;;;;4875061;29;20075;-71
2023/01/16 03:09:51;;;;;;;47.78;24.95;;;;;;;;;;4897252;29;20036;-72
2023/01/16 03:12:38;;;;;;;43.13;22.38;;;;;;;;;;4890803;29;20037;-72
2023/01/16 03:15:18;;;;;;;45.85;21.75;;;;;;;;;;4891301;29;20033;-72
2023/01/16 03:17:56;;;;;;;42.58;22.02;;;;;;;;;;4896423;29;20040;-72
2023/01/16 03:20:43;;;;;;;44.05;22.75;;;;;;;;;;4897226;29;20068;-71
2023/01/16 03:23:14;;;;;;;44.78;21.55;;;;;;;;;;4892093;29;20052;-71
2023/01/16 03:25:40;;;;;;;47.65;22.50;;;;;;;;;;4880951;29;20120;-72
2023/01/16 03:28:24;;;;;;;43.95;20.98;;;;;;;;;;4898114;29;20028;-72
2023/01/16 03:31:05;;;;;;;40.60;19.42;;;;;;;;;;4903167;29;20036;-72
2023/01/16 03:34:02;;;;;;;45.88;19.55;;;;;;;;;;4914941;29;20143;-72
2023/01/16 03:37:17;;;;;;;41.35;20.20;;;;;;;;;;4916200;29;20047;-72
2023/01/16 03:39:47;;;;;;;36.58;17.55;;;;;;;;;;4892621;29;20049;-72
2023/01/16 03:42:23;;;;;;;38.15;19.80;;;;;;;;;;4872304;29;20048;-72
2023/01/16 03:44:55;;;;;;;42.75;19.13;;;;;;;;;;4861116;29;20088;-72
2023/01/16 03:47:30;;;;;;;42.60;19.10;;;;;;;;;;4883920;29;20041;-72
2023/01/16 03:49:59;;;;;;;40.88;20.13;;;;;;;;;;4873236;29;20084;-73
2023/01/16 03:52:32;;;;;;;38.08;19.75;;;;;;;;;;4886938;29;20063;-73
2023/01/16 03:55:24;;;;;;;39.85;20.50;;;;;;;;;;4853621;29;20036;-72
2023/01/16 03:57:54;;;;;;;37.17;18.77;;;;;;;;;;4875408;29;20037;-72
2023/01/16 04:00:22;;;;;;;36.92;19.35;;;;;;;;;;4878554;29;20228;-72
2023/01/16 04:03:08;;;;;;;39.55;19.50;;;;;;;;;;4883829;29;20041;-73
2023/01/16 04:05:56;;;;;;;40.20;18.77;;;;;;;;;;4845455;29;20040;-71
2023/01/16 04:08:29;;;;;;;38.00;17.67;;;;;;;;;;4883274;29;20090;-72
2023/01/16 04:10:55;;;;;;;34.05;18.52;;;;;;;;;;4871851;29;20123;-72
2023/01/16 04:13:28;;;;;;;35.78;18.88;;;;;;;;;;4886467;29;20064;-72
2023/01/16 04:15:58;;;;;;;35.33;17.53;;;;;;;;;;4859183;29;20040;-72
2023/01/16 04:18:32;;;;;;;35.35;18.63;;;;;;;;;;4895497;29;20291;-72
2023/01/16 04:20:58;;;;;;;35.88;18.88;;;;;;;;;;4879732;29;20033;-72
2023/01/16 04:23:24;;;;;;;34.30;17.40;;;;;;;;;;4896563;29;20036;-73
2023/01/16 04:25:50;;;;;;;33.42;17.23;;;;;;;;;;4896216;29;20411;-72
2023/01/16 04:28:16;;;;;;;42.33;21.05;;;;;;;;;;4887450;29;20032;-72
2023/01/16 04:30:42;;;;;;;38.35;18.42;;;;;;;;;;4898997;29;20044;-72
2023/01/16 04:33:07;;;;;;;40.65;19.25;;;;;;;;;;4899996;29;20031;-72
2023/01/16 04:35:34;;;;;;;34.65;17.10;;;;;;;;;;4899748;29;20076;-72
2023/01/16 04:37:59;;;;;;;37.50;19.90;;;;;;;;;;4899528;29;20051;-72
2023/01/16 04:40:25;;;;;;;29.05;16.27;;;;;;;;;;4899373;29;20033;-72
2023/01/16 04:42:51;;;;;;;31.35;16.92;;;;;;;;;;4899570;29;20153;-72
2023/01/16 04:45:17;;;;;;;36.30;18.45;;;;;;;;;;4899598;29;20119;-72
2023/01/16 04:47:47;;;;;;;37.00;17.98;;;;;;;;;;4900163;29;20183;-72
2023/01/16 04:50:14;;;;;;;33.92;17.27;;;;;;;;;;4883124;29;20487;-72
2023/01/16 04:52:40;;;;;;;33.38;16.30;;;;;;;;;;4882615;29;20021;-71
2023/01/16 04:55:07;;;;;;;33.47;15.98;;;;;;;;;;4867300;29;20052;-72
2023/01/16 04:57:33;;;;;;;29.35;16.17;;;;;;;;;;4899103;29;20024;-72
2023/01/16 04:59:58;;;;;;;35.65;17.67;;;;;;;;;;4899155;29;20031;-72
2023/01/16 05:02:24;;;;;;;44.17;17.42;;;;;;;;;;4891124;29;20056;-72
2023/01/16 05:04:50;;;;;;;36.13;18.63;;;;;;;;;;4899135;29;20380;-72
2023/01/16 05:07:15;;;;;;;69.30;29.23;;;;;;;;;;4899404;29;20542;-71
2023/01/16 05:09:41;;;;;;;49.80;21.50;;;;;;;;;;4889040;29;20040;-72
2023/01/16 05:12:07;;;;;;;40.05;18.20;;;;;;;;;;4898658;29;20363;-73
2023/01/16 05:14:33;;;;;;;43.95;19.88;;;;;;;;;;4891354;29;20052;-72
2023/01/16 05:16:58;;;;;;;43.50;21.75;;;;;;;;;;4874280;29;20057;-72
2023/01/16 05:19:24;;;;;;;35.67;18.92;;;;;;;;;;4899207;29;20051;-72
2023/01/16 05:21:50;;;;;;;35.50;17.25;;;;;;;;;;4881985;29;20036;-72
2023/01/16 05:24:16;;;;;;;37.97;18.27;;;;;;;;;;4884742;29;20037;-73
2023/01/16 05:26:42;;;;;;;38.25;18.67;;;;;;;;;;4894288;29;20024;-73
2023/01/16 05:29:07;;;;;;;56.03;20.17;;;;;;;;;;4881130;29;20029;-72
2023/01/16 05:31:33;;;;;;;35.58;17.67;;;;;;;;;;4892202;29;20029;-71
2023/01/16 05:33:59;;;;;;;40.67;16.90;;;;;;;;;;4897322;29;20044;-72
2023/01/16 05:36:24;;;;;;;48.60;18.75;;;;;;;;;;4898312;29;20060;-73
2023/01/16 05:38:50;;;;;;;42.00;18.40;;;;;;;;;;4898696;29;20037;-71
2023/01/16 05:41:17;;;;;;;51.08;24.00;;;;;;;;;;4897248;29;20080;-72
2023/01/16 05:43:43;;;;;;;52.13;22.65;;;;;;;;;;4879947;29;20037;-72
2023/01/16 05:46:09;;;;;;;58.33;23.27;;;;;;;;;;4897655;29;20177;-72
2023/01/16 05:48:37;;;;;;;49.92;21.08;;;;;;;;;;4892457;29;20033;-71
2023/01/16 05:51:03;;;;;;;52.33;23.63;;;;;;;;;;4894272;29;20067;-72
2023/01/16 05:53:30;;;;;;;48.40;19.73;;;;;;;;;;4902077;29;20040;-72
2023/01/16 05:55:57;;;;;;;39.70;20.70;;;;;;;;;;4903545;29;20036;-74
2023/01/16 05:58:23;;;;;;;67.00;24.27;;;;;;;;;;4904904;29;20121;-74
2023/01/16 06:00:48;;;;;;;42.67;21.05;;;;;;;;;;4889482;29;20118;-77
2023/01/16 06:03:15;;;;;;;49.20;23.08;;;;;;;;;;4875559;29;20048;-76
2023/01/16 06:05:41;;;;;;;36.70;19.08;;;;;;;;;;4873382;29;20529;-75
2023/01/16 06:08:07;;;;;;;48.78;20.77;;;;;;;;;;4881393;29;20459;-75
2023/01/16 06:10:33;;;;;;;43.50;22.35;;;;;;;;;;4896112;29;20024;-76
2023/01/16 06:13:03;;;;;;;39.63;20.13;;;;;;;;;;4886416;29;20041;-76
2023/01/16 06:15:29;;;;;;;47.15;21.05;;;;;;;;;;4877127;29;20131;-77
2023/01/16 06:17:55;;;;;;;49.95;21.17;;;;;;;;;;4886778;29;20032;-75
2023/01/16 06:20:21;;;;;;;54.60;22.33;;;;;;;;;;4880968;29;20561;-76
2023/01/16 06:22:47;;;;;;;48.17;22.05;;;;;;;;;;4888659;29;20040;-76
2023/01/16 06:25:13;;;;;;;43.20;22.35;;;;;;;;;;4887696;29;20127;-73
2023/01/16 06:27:39;;;;;;;36.72;20.55;;;;;;;;;;4896722;29;20116;-75
2023/01/16 06:30:06;;;;;;;56.10;24.95;;;;;;;;;;4896361;29;20111;-75
2023/01/16 06:32:31;;;;;;;54.05;27.17;;;;;;;;;;4896495;29;20483;-74
2023/01/16 06:34:57;;;;;;;52.80;26.25;;;;;;;;;;4880649;29;20024;-75
2023/01/16 06:37:23;;;;;;;57.03;27.73;;;;;;;;;;4888051;29;20455;-75
2023/01/16 06:39:48;;;;;;;59.20;27.13;;;;;;;;;;4896542;29;20052;-74
2023/01/16 06:42:14;;;;;;;59.47;27.63;;;;;;;;;;4876648;29;20056;-75
2023/01/16 06:44:40;;;;;;;55.10;29.08;;;;;;;;;;4895718;29;20073;-75
2023/01/16 06:47:06;;;;;;;61.08;29.83;;;;;;;;;;4896849;29;20044;-73
2023/01/16 06:49:32;;;;;;;50.58;24.70;;;;;;;;;;4879536;29;20028;-74
2023/01/16 06:52:00;;;;;;;45.20;22.52;;;;;;;;;;4887497;29;20047;-74
2023/01/16 06:54:26;;;;;;;50.22;23.25;;;;;;;;;;4887723;29;20072;-73
2023/01/16 06:56:52;;;;;;;47.30;23.58;;;;;;;;;;4877971;29;20052;-74
2023/01/16 06:59:18;;;;;;;54.92;24.75;;;;;;;;;;4896071;29;20032;-76
2023/01/16 07:01:45;;;;;;;53.63;26.42;;;;;;;;;;4888407;29;20049;-75
2023/01/16 07:04:10;;;;;;;42.38;22.52;;;;;;;;;;4891014;29;20044;-73
2023/01/16 07:06:37;;;;;;;47.35;22.85;;;;;;;;;;4893103;29;20412;-73
2023/01/16 07:09:03;;;;;;;50.10;26.17;;;;;;;;;;4883025;29;20116;-73
2023/01/16 07:11:32;;;;;;;48.13;23.17;;;;;;;;;;4884237;29;20477;-74
2023/01/16 07:24:58;;;;;;;49.38;22.73;;;;;;;;;;4895706;29;20032;-72
2023/01/16 07:27:25;;;;;;;56.38;23.33;;;;;;;;;;4895451;29;20416;-74
2023/01/16 07:29:52;;;;;;;51.65;22.27;;;;;;;;;;4879443;29;20083;-74
2023/01/16 07:32:18;;;;;;;42.28;22.67;;;;;;;;;;4887659;29;20020;-78
2023/01/16 07:34:44;;;;;;;47.95;22.95;;;;;;;;;;4888834;29;20036;-75
2023/01/16 07:37:11;;;;;;;49.47;22.55;;;;;;;;;;4873885;29;20033;-75
2023/01/16 07:39:37;;;;;;;43.60;22.52;;;;;;;;;;4877623;29;20060;-75
2023/01/16 07:42:07;;;;;;;54.72;26.30;;;;;;;;;;4887055;29;20028;-74
2023/01/16 07:44:34;;;;;;;48.92;22.58;;;;;;;;;;4878510;29;20036;-76
2023/01/16 07:47:00;;;;;;;55.50;24.02;;;;;;;;;;4895289;29;20039;-73
2023/01/16 07:49:25;;;;;;;40.13;22.15;;;;;;;;;;4875684;29;20419;-71
2023/01/16 07:51:51;;;;;;;37.45;21.02;;;;;;;;;;4897671;29;20028;-73
2023/01/16 07:54:17;;;;;;;44.38;21.40;;;;;;;;;;4901865;29;20040;-72
2023/01/16 07:56:43;;;;;;;40.03;22.02;;;;;;;;;;4900025;29;20117;-72
2023/01/16 07:59:09;;;;;;;50.95;22.02;;;;;;;;;;4881241;29;20463;-73
2023/01/16 08:01:35;;;;;;;41.42;20.35;;;;;;;;;;4895612;29;20103;-75
2023/01/16 08:04:01;;;;;;;35.50;19.92;;;;;;;;;;4880096;29;20045;-73
2023/01/16 08:06:27;;;;;;;37.40;20.17;;;;;;;;;;4901153;29;20479;-72
2023/01/16 08:08:53;;;;;;;39.80;20.25;;;;;;;;;;4902016;29;20048;-74
2023/01/16 08:11:38;;;;;;;38.65;20.80;;;;;;;;;;4909424;29;20028;-76
2023/01/16 08:14:06;;;;;;;41.80;23.52;;;;;;;;;;4906905;29;20495;-74
2023/01/16 08:16:32;;;;;;;40.60;21.38;;;;;;;;;;4911943;29;20110;-73
2023/01/16 08:18:58;;;;;;;34.17;19.58;;;;;;;;;;4911146;29;20036;-74
2023/01/16 08:21:23;;;;;;;42.55;20.40;;;;;;;;;;4903415;29;20065;-71
2023/01/16 08:23:49;;;;;;;42.53;22.95;;;;;;;;;;4893970;29;20091;-72
2023/01/16 08:26:15;;;;;;;40.63;22.90;;;;;;;;;;4900417;29;20044;-72
2023/01/16 08:28:41;;;;;;;52.13;21.90;;;;;;;;;;4899421;29;20033;-72
2023/01/16 08:31:17;;;;;;;40.15;21.02;;;;;;;;;;4899330;29;20029;-72
2023/01/16 08:33:46;;;;;;;38.97;21.55;;;;;;;;;;4897296;29;20407;-73
2023/01/16 08:36:12;;;;;;;39.00;20.30;;;;;;;;;;4899389;29;20025;-72
2023/01/16 08:38:38;;;;;;;40.28;22.27;;;;;;;;;;4899807;29;20051;-71
2023/01/16 08:51:21;;;;;;;37.88;22.45;;;;;;;;;;4894536;29;20025;-71
2023/01/16 08:52:03;;;;;;;49.00;23.00;;;;;;;;;;4888612;29;20037;-72
2023/01/16 08:54:29;;;;;;;44.25;24.67;;;;;;;;;;4896082;29;20443;-72
2023/01/16 08:56:55;;;;;;;47.90;25.60;;;;;;;;;;4898802;29;20067;-72
2023/01/16 08:59:20;;;;;;;53.55;27.02;;;;;;;;;;4892811;29;20046;-72
2023/01/16 09:01:46;;;;;;;49.15;26.52;;;;;;;;;;4872992;29;20052;-72
2023/01/16 09:04:12;;;;;;;45.00;24.95;;;;;;;;;;4899174;29;20036;-72
2023/01/16 09:06:38;;;;;;;48.63;24.67;;;;;;;;;;4897312;29;20168;-72
2023/01/16 09:09:05;;;;;;;47.05;24.50;;;;;;;;;;4892798;29;20028;-72
2023/01/16 09:14:16;;;;;;;46.63;23.70;;;;;;;;;;4899049;29;20567;-73
2023/01/16 09:16:42;;;;;;;42.90;21.75;;;;;;;;;;4899248;29;20047;-74
2023/01/16 09:19:08;;;;;;;43.15;23.08;;;;;;;;;;4898368;29;20495;-74
2023/01/16 09:21:33;;;;;;;44.35;21.95;;;;;;;;;;4881992;29;20044;-71
2023/01/16 09:23:59;;;;;;;39.08;21.73;;;;;;;;;;4898211;29;20040;-73
2023/01/16 09:26:24;;;;;;;37.33;21.08;;;;;;;;;;4891235;29;20029;-71
2023/01/16 09:28:51;;;;;;;41.60;21.88;;;;;;;;;;4881345;29;20044;-73
2023/01/16 09:31:18;;;;;;;39.38;21.95;;;;;;;;;;4898445;29;20028;-73
2023/01/16 09:33:46;;;;;;;43.72;21.38;;;;;;;;;;4887922;29;20051;-73
2023/01/16 09:36:12;;;;;;;36.83;20.83;;;;;;;;;;4897819;29;20024;-73
2023/01/16 09:38:38;;;;;;;38.17;21.42;;;;;;;;;;4889557;29;20049;-72
2023/01/16 09:41:04;;;;;;;38.35;21.48;;;;;;;;;;4888536;29;20043;-72
2023/01/16 09:43:42;;;;;;;37.00;20.67;;;;;;;;;;4898287;29;20032;-71
2023/01/16 09:46:15;;;;;;;38.63;20.48;;;;;;;;;;4898034;29;20525;-74
2023/01/16 09:49:28;;;;;;;40.50;20.63;;;;;;;;;;4897458;29;20040;-72
2023/01/16 10:00:34;;;;;;;43.60;20.95;;;;;;;;;;4890278;29;20093;-73
2023/01/16 10:02:59;;;;;;;45.60;22.70;;;;;;;;;;4897792;29;20095;-73
2023/01/16 10:05:37;;;;;;;38.92;20.15;;;;;;;;;;4897870;29;20103;-72
2023/01/16 10:08:29;;;;;;;35.13;20.35;;;;;;;;;;4886683;29;20044;-72
2023/01/16 10:11:04;;;;;;;49.03;20.48;;;;;;;;;;4889718;29;20032;-75
2023/01/16 10:13:46;;;;;;;30.83;18.08;;;;;;;;;;4897127;29;20483;-72
2023/01/16 10:16:23;;;;;;;33.85;18.55;;;;;;;;;;4897283;29;20048;-73
2023/01/16 10:19:05;;;;;;;32.50;18.52;;;;;;;;;;4898124;29;20041;-73
2023/01/16 10:22:09;;;;;;;31.75;18.00;;;;;;;;;;4888454;29;20574;-73
2023/01/16 10:24:49;;;;;;;27.67;16.05;;;;;;;;;;4896809;29;20040;-74
2023/01/16 10:27:40;;;;;;;30.98;15.75;;;;;;;;;;4896490;29;20056;-73
2023/01/16 10:30:18;;;;;;;28.73;16.60;;;;;;;;;;4892510;29;20052;-73
2023/01/16 10:32:56;;;;;;;30.30;17.33;;;;;;;;;;4897094;29;20056;-73
2023/01/16 10:35:38;;;;;;;29.60;17.33;;;;;;;;;;4897129;29;20068;-72
2023/01/16 10:38:20;;;;;;;24.98;14.73;;;;;;;;;;4897984;29;20044;-71
2023/01/16 10:40:52;;;;;;;22.90;14.77;;;;;;;;;;4896593;29;20036;-71
2023/01/16 10:49:25;;;;;;;28.00;15.80;;;;;;;;;;4888293;29;20388;-73
2023/01/16 10:51:51;;;;;;;31.15;16.30;;;;;;;;;;4887541;29;20051;-72
2023/01/16 10:54:17;;;;;;;35.45;17.98;;;;;;;;;;4896372;29;20025;-72
2023/01/16 10:56:43;;;;;;;31.02;17.67;;;;;;;;;;4871491;29;20048;-72
2023/01/16 10:59:11;;;;;;;31.08;16.58;;;;;;;;;;4880146;29;20436;-73
2023/01/16 11:01:40;;;;;;;31.80;16.38;;;;;;;;;;4895312;29;20037;-72
2023/01/16 11:04:10;;;;;;;36.65;17.20;;;;;;;;;;4896251;29;20135;-73
2023/01/16 11:06:37;;;;;;;32.90;17.40;;;;;;;;;;4896551;29;20032;-71
2023/01/16 11:09:07;;;;;;;28.13;16.42;;;;;;;;;;4889042;29;20033;-71
2023/01/16 11:20:38;;;;;;;31.02;15.57;;;;;;;;;;4896280;29;20040;-73
2023/01/16 11:23:16;;;;;;;26.17;14.35;;;;;;;;;;4890467;29;20048;-74
2023/01/16 11:25:44;;;;;;;27.55;13.25;;;;;;;;;;4896828;29;20037;-72
2023/01/16 11:28:20;;;;;;;19.42;10.70;;;;;;;;;;4849639;29;20085;-74
2023/01/16 11:30:51;;;;;;;19.38;13.18;;;;;;;;;;4896315;29;20045;-72
2023/01/16 11:33:23;;;;;;;18.90;11.05;;;;;;;;;;4879839;29;20491;-73
2023/01/16 11:35:59;;;;;;;15.27;9.70;;;;;;;;;;4893473;29;20510;-72
2023/01/16 11:38:28;;;;;;;24.38;12.65;;;;;;;;;;4896848;29;20044;-73
2023/01/16 11:40:59;;;;;;;25.52;13.20;;;;;;;;;;4881431;29;20044;-73
2023/01/16 11:46:40;;;;;;;19.50;12.10;;;;;;;;;;4897779;29;20043;-74
2023/01/16 11:49:17;;;;;;;16.10;10.48;;;;;;;;;;4881289;29;20029;-75
2023/01/16 11:51:43;;;;;;;19.23;10.80;;;;;;;;;;4874136;29;20055;-75
2023/01/16 11:54:16;;;;;;;18.02;11.32;;;;;;;;;;4898336;29;20495;-74
2023/01/16 11:57:04;;;;;;;17.00;11.00;;;;;;;;;;4898929;29;20100;-75
2023/01/16 11:59:48;;;;;;;16.63;9.88;;;;;;;;;;4891066;29;20099;-74
2023/01/16 12:02:24;;;;;;;18.20;10.35;;;;;;;;;;4892445;29;20061;-74
2023/01/16 12:08:03;;;;;;;17.35;10.23;;;;;;;;;;4900230;29;20047;-76
2023/01/16 12:10:49;;;;;;;15.00;9.97;;;;;;;;;;4884403;29;20103;-76
2023/01/16 12:16:52;;;;;;;17.52;10.65;;;;;;;;;;4889146;29;20129;-75
2023/01/16 12:19:47;;;;;;;16.90;10.25;;;;;;;;;;4850690;29;20042;-75
2023/01/16 12:22:22;;;;;;;19.25;11.38;;;;;;;;;;4844485;29;20046;-77
2023/01/16 12:24:57;;;;;;;16.33;10.02;;;;;;;;;;4880950;29;20459;-74
2023/01/16 12:27:39;;;;;;;16.05;10.32;;;;;;;;;;4900648;29;20076;-75
2023/01/16 12:30:23;;;;;;;16.95;11.20;;;;;;;;;;4896973;29;20055;-76
2023/01/16 12:33:13;;;;;;;19.20;11.38;;;;;;;;;;4903209;29;20428;-74
2023/01/16 12:35:46;;;;;;;16.63;10.73;;;;;;;;;;4901906;29;20115;-75
2023/01/16 12:38:24;;;;;;;21.63;11.45;;;;;;;;;;4898885;29;20054;-76
2023/01/16 12:44:05;;;;;;;14.73;8.68;;;;;;;;;;4899011;29;20123;-75
2023/01/16 12:46:34;;;;;;;16.60;10.18;;;;;;;;;;4879851;29;20048;-75
2023/01/16 12:49:02;;;;;;;17.45;10.55;;;;;;;;;;4900367;29;20056;-75
2023/01/16 12:51:40;;;;;;;16.63;10.27;;;;;;;;;;4893836;29;20041;-76
2023/01/16 12:54:51;;;;;;;19.23;11.30;;;;;;;;;;4893218;29;20040;-74
2023/01/16 12:57:58;;;;;;;18.23;11.35;;;;;;;;;;4892173;29;20037;-74
2023/01/16 13:00:33;;;;;;;17.05;11.10;;;;;;;;;;4866301;29;20057;-73
2023/01/16 13:03:38;;;;;;;20.52;11.93;;;;;;;;;;4882595;29;20123;-75
2023/01/16 13:06:10;;;;;;;19.92;11.60;;;;;;;;;;4881178;29;20045;-77
2023/01/16 13:08:59;;;;;;;20.25;11.93;;;;;;;;;;4891432;29;20043;-77
2023/01/16 13:14:25;;;;;;;20.67;12.70;;;;;;;;;;4896782;29;20097;-75
2023/01/16 13:17:09;;;;;;;21.30;12.30;;;;;;;;;;4883207;29;20051;-75
2023/01/16 13:19:39;;;;;;;18.98;11.15;;;;;;;;;;4899504;29;20028;-77
2023/01/16 13:22:08;;;;;;;20.52;10.93;;;;;;;;;;4906056;29;20140;-73
2023/01/16 13:25:00;;;;;;;22.50;11.50;;;;;;;;;;4899031;29;20111;-75
2023/01/16 13:27:43;;;;;;;17.05;10.20;;;;;;;;;;4897614;29;20040;-74
2023/01/16 13:30:16;;;;;;;22.45;11.80;;;;;;;;;;4899775;29;20068;-76
2023/01/16 13:33:02;;;;;;;17.08;11.43;;;;;;;;;;4887772;29;20052;-74
2023/01/16 13:35:49;;;;;;;22.20;11.73;;;;;;;;;;4895403;29;20270;-72
2023/01/16 13:38:27;;;;;;;19.27;11.07;;;;;;;;;;4891435;29;20037;-74
2023/01/16 13:41:15;;;;;;;14.23;9.52;;;;;;;;;;4881467;29;20029;-73
2023/01/16 13:46:34;;;;;;;17.58;9.50;;;;;;;;;;4898530;29;20123;-76
2023/01/16 13:49:02;;;;;;;19.90;10.00;;;;;;;;;;4898570;29;20155;-74
2023/01/16 13:51:29;;;;;;;18.73;9.80;;;;;;;;;;4898522;29;20036;-74
2023/01/16 13:53:59;;;;;;;18.83;11.18;;;;;;;;;;4881629;29;20179;-73
2023/01/16 13:56:26;;;;;;;19.75;11.65;;;;;;;;;;4898582;29;20072;-76
2023/01/16 13:59:05;;;;;;;18.42;11.00;;;;;;;;;;4881858;29;20163;-77
2023/01/16 14:01:44;;;;;;;22.23;11.70;;;;;;;;;;4897652;29;20059;-77
2023/01/16 14:04:15;;;;;;;26.40;13.35;;;;;;;;;;4898143;29;20071;-74
2023/01/16 14:10:14;;;;;;;29.85;15.90;;;;;;;;;;4894904;29;20697;-75
2023/01/16 14:12:58;;;;;;;;;;;;;;;;;;4894788;29;20076;-75
2023/01/16 14:18:15;;;;;;;28.25;14.68;;;;;;;;;;4896269;29;20208;-74
2023/01/16 14:20:47;;;;;;;29.92;16.05;;;;;;;;;;4896487;29;20459;-74
2023/01/16 14:26:23;;;;;;;26.60;16.33;;;;;;;;;;4896742;29;20052;-74
2023/01/16 14:28:56;;;;;;;25.73;15.02;;;;;;;;;;4899821;29;20033;-76
2023/01/16 14:31:25;;;;;;;35.28;15.68;;;;;;;;;;4891234;29;20053;-73
2023/01/16 14:33:54;;;;;;;54.38;18.45;;;;;;;;;;4880506;29;20415;-76
2023/01/16 14:36:24;;;;;;;29.58;16.25;;;;;;;;;;4899569;29;20028;-74
2023/01/16 14:38:52;;;;;;;25.95;15.82;;;;;;;;;;4894480;29;20029;-75
2023/01/16 14:55:56;;;;;;;60.88;30.73;;;;;;;;;;4896622;29;20867;-72
2023/01/16 14:58:44;;;;;;;37.13;18.27;;;;;;;;;;4891244;29;20033;-75
2023/01/16 15:04:06;;;;;;;37.25;18.52;;;;;;;;;;4880448;29;20043;-73
2023/01/16 15:06:36;;;;;;;28.15;15.90;;;;;;;;;;4896914;29;20061;-74
2023/01/16 15:09:04;;;;;;;26.95;14.63;;;;;;;;;;4894153;29;20052;-72
2023/01/16 15:11:31;;;;;;;40.35;23.42;;;;;;;;;;4879272;29;20029;-73
2023/01/16 15:14:30;;;;;;;42.28;18.27;;;;;;;;;;4896206;29;20043;-72
2023/01/16 15:23:01;;;;;;;42.58;20.60;;;;;;;;;;4894587;29;20096;-72
2023/01/16 15:25:44;;;;;;;48.92;24.08;;;;;;;;;;4891740;29;20192;-74
2023/01/16 15:28:10;;;;;;;54.23;21.83;;;;;;;;;;4893798;29;20036;-73
2023/01/16 15:30:37;;;;;;;30.70;15.02;;;;;;;;;;4894301;29;20290;-73
2023/01/16 15:35:55;;;;;;;36.25;17.08;;;;;;;;;;4878241;29;20028;-72
2023/01/16 15:38:23;;;;;;;;;;;;;;;;;;4895737;29;20068;-73
2023/01/16 15:40:52;;;;;;;47.78;24.63;;;;;;;;;;4876958;29;19929;-72
2023/01/16 15:46:50;;;;;;;37.13;18.55;;;;;;;;;;4888341;29;20435;-72
2023/01/16 15:49:40;;;;;;;37.80;21.60;;;;;;;;;;4828455;29;20407;-75
2023/01/16 15:52:06;;;;;;;36.00;17.98;;;;;;;;;;4829056;29;20042;-74
2023/01/16 15:54:36;;;;;;;39.65;19.45;;;;;;;;;;4832518;29;20405;-75
2023/01/16 15:57:02;;;;;;;37.33;20.73;;;;;;;;;;4831770;29;20053;-74
2023/01/16 15:59:33;;;;;;;38.45;21.27;;;;;;;;;;4833309;29;20063;-75
2023/01/16 16:02:29;;;;;;;34.00;20.33;;;;;;;;;;4833170;29;20074;-73
2023/01/16 16:04:59;;;;;;;40.22;21.83;;;;;;;;;;4827161;29;20151;-73
2023/01/16 16:07:26;;;;;;;54.28;25.60;;;;;;;;;;4832641;29;20140;-74
2023/01/16 16:09:59;;;;;;;37.53;21.00;;;;;;;;;;4831135;29;20030;-75
2023/01/16 16:12:30;;;;;;;36.35;18.88;;;;;;;;;;4818353;29;20118;-74
2023/01/16 16:18:23;;;;;;;43.00;22.25;;;;;;;;;;4830173;29;20622;-74
2023/01/16 16:20:51;;;;;;;45.22;24.40;;;;;;;;;;4829802;29;20094;-75
2023/01/16 16:23:25;;;;;;;45.00;25.90;;;;;;;;;;4831883;29;20030;-75
2023/01/16 16:26:03;;;;;;;49.22;26.90;;;;;;;;;;4860018;29;20324;-73
2023/01/16 16:28:38;;;;;;;58.85;28.40;;;;;;;;;;4870679;29;20494;-77
2023/01/16 16:31:33;;;;;;;55.47;28.27;;;;;;;;;;4887608;29;20032;-74
2023/01/16 16:33:59;;;;;;;62.00;33.05;;;;;;;;;;4877200;29;20051;-74
2023/01/16 16:36:26;;;;;;;61.95;30.60;;;;;;;;;;4895509;29;20028;-74